createdAt,value
2018-07-24T00:00:28.062Z,22.68
2018-07-24T00:01:42.804Z,22.71
2018-07-24T00:02:57.548Z,22.81
2018-07-24T00:04:11.823Z,22.93
2018-07-24T00:05:26.482Z,22.93
2018-07-24T00:06:40.989Z,22.96
2018-07-24T00:07:55.731Z,22.95
2018-07-24T00:09:10.489Z,22.99
2018-07-24T00:10:25.326Z,22.91
2018-07-24T00:11:39.717Z,22.95
2018-07-24T00:12:54.209Z,22.98
2018-07-24T00:14:08.728Z,22.99
2018-07-24T00:15:22.960Z,22.98
2018-07-24T00:16:37.784Z,23.01
2018-07-24T00:17:52.036Z,23.01
2018-07-24T00:19:06.553Z,22.98
2018-07-24T00:20:20.823Z,22.93
2018-07-24T00:21:35.309Z,22.93
2018-07-24T00:22:49.519Z,22.95
2018-07-24T00:24:04.010Z,22.95
2018-07-24T00:25:18.507Z,22.96
2018-07-24T00:26:32.841Z,23.01
2018-07-24T00:27:46.808Z,22.91
2018-07-24T00:29:01.284Z,22.96
2018-07-24T00:30:15.802Z,22.96
2018-07-24T00:31:31.159Z,22.99
2018-07-24T00:32:45.387Z,23.01
2018-07-24T00:33:59.339Z,23.01
2018-07-24T00:35:13.817Z,22.96
2018-07-24T00:36:28.605Z,23.02
2018-07-24T00:37:43.097Z,23.04
2018-07-24T00:38:57.593Z,22.98
2018-07-24T00:40:11.554Z,22.99
2018-07-24T00:41:26.582Z,23.02
2018-07-24T00:42:41.057Z,22.96
2018-07-24T00:43:55.299Z,22.83
2018-07-24T00:45:10.223Z,22.77
2018-07-24T00:46:24.699Z,22.67
2018-07-24T00:47:39.465Z,22.51
2018-07-24T00:48:54.390Z,22.56
2018-07-24T00:50:08.141Z,22.62
2018-07-24T00:51:22.671Z,22.61
2018-07-24T00:52:37.498Z,22.65
2018-07-24T00:53:51.758Z,22.7
2018-07-24T00:55:06.271Z,22.71
2018-07-24T00:56:20.479Z,22.65
2018-07-24T00:57:34.685Z,22.73
2018-07-24T00:58:49.167Z,22.67
2018-07-24T01:00:03.914Z,22.74
2018-07-24T01:01:18.161Z,22.8
2018-07-24T01:02:32.060Z,22.77
2018-07-24T01:03:46.055Z,22.71
2018-07-24T01:05:00.809Z,22.7
2018-07-24T01:06:15.510Z,22.67
2018-07-24T01:07:30.802Z,22.55
2018-07-24T01:08:45.395Z,22.67
2018-07-24T01:09:59.900Z,22.58
2018-07-24T01:11:13.918Z,22.58
2018-07-24T01:12:28.187Z,22.67
2018-07-24T01:13:42.851Z,22.62
2018-07-24T01:14:57.094Z,22.53
2018-07-24T01:16:11.848Z,22.58
2018-07-24T01:17:26.632Z,22.53
2018-07-24T01:18:41.493Z,22.51
2018-07-24T01:19:55.850Z,22.56
2018-07-24T01:21:09.835Z,22.4
2018-07-24T01:22:24.259Z,22.47
2018-07-24T01:23:39.210Z,22.46
2018-07-24T01:24:53.879Z,22.46
2018-07-24T01:26:08.551Z,22.4
2018-07-24T01:27:22.479Z,22.37
2018-07-24T01:28:36.414Z,22.38
2018-07-24T01:29:51.114Z,22.38
2018-07-24T01:31:05.256Z,22.25
2018-07-24T01:32:19.172Z,22.33
2018-07-24T01:33:34.104Z,22.23
2018-07-24T01:34:48.832Z,22.21
2018-07-24T01:36:03.005Z,22.1
2018-07-24T01:37:17.449Z,22.08
2018-07-24T01:38:31.781Z,22.12
2018-07-24T01:39:46.719Z,22.1
2018-07-24T01:41:01.951Z,22.07
2018-07-24T01:42:16.901Z,22.12
2018-07-24T01:43:31.289Z,22.06
2018-07-24T01:44:45.721Z,21.99
2018-07-24T01:45:59.950Z,21.96
2018-07-24T01:47:13.869Z,21.99
2018-07-24T01:48:28.045Z,21.99
2018-07-24T01:49:42.954Z,21.99
2018-07-24T01:50:57.360Z,21.94
2018-07-24T01:52:11.818Z,21.99
2018-07-24T01:53:26.258Z,21.94
2018-07-24T01:54:40.934Z,21.84
2018-07-24T01:55:55.362Z,21.8
2018-07-24T01:57:09.281Z,21.88
2018-07-24T01:58:23.712Z,21.92
2018-07-24T01:59:38.416Z,21.89
2018-07-24T02:00:52.591Z,21.88
2018-07-24T02:02:07.055Z,21.84
2018-07-24T02:03:21.290Z,21.83
2018-07-24T02:04:35.522Z,21.77
2018-07-24T02:05:49.930Z,21.7
2018-07-24T02:07:04.370Z,21.74
2018-07-24T02:08:18.869Z,21.65
2018-07-24T02:09:32.802Z,21.7
2018-07-24T02:10:47.752Z,21.69
2018-07-24T02:12:01.892Z,21.72
2018-07-24T02:13:16.081Z,21.69
2018-07-24T02:14:31.422Z,21.66
2018-07-24T02:15:46.153Z,21.68
2018-07-24T02:17:00.859Z,21.56
2018-07-24T02:18:14.986Z,21.63
2018-07-24T02:19:29.651Z,21.53
2018-07-24T02:20:44.758Z,21.51
2018-07-24T02:21:59.191Z,21.5
2018-07-24T02:23:13.611Z,21.53
2018-07-24T02:24:28.298Z,21.51
2018-07-24T02:25:43.140Z,21.53
2018-07-24T02:26:58.095Z,21.53
2018-07-24T02:28:12.302Z,21.54
2018-07-24T02:29:26.741Z,21.5
2018-07-24T02:30:41.166Z,21.59
2018-07-24T02:31:55.282Z,21.56
2018-07-24T02:33:09.879Z,21.53
2018-07-24T02:34:24.330Z,21.54
2018-07-24T02:35:38.799Z,21.56
2018-07-24T02:36:52.736Z,21.53
2018-07-24T02:38:07.663Z,21.66
2018-07-24T02:39:22.333Z,21.56
2018-07-24T02:40:37.038Z,21.63
2018-07-24T02:41:51.733Z,21.59
2018-07-24T02:43:05.660Z,21.59
2018-07-24T02:44:20.370Z,21.56
2018-07-24T02:45:34.848Z,21.54
2018-07-24T02:46:49.329Z,21.54
2018-07-24T02:48:03.752Z,21.59
2018-07-24T02:49:18.216Z,21.51
2018-07-24T02:50:32.816Z,21.63
2018-07-24T02:51:46.998Z,21.58
2018-07-24T02:53:01.455Z,21.62
2018-07-24T02:54:15.925Z,21.59
2018-07-24T02:55:30.657Z,21.33
2018-07-24T02:56:45.580Z,21.2
2018-07-24T02:58:00.530Z,21.1
2018-07-24T02:59:14.949Z,21
2018-07-24T03:00:29.651Z,20.92
2018-07-24T03:01:44.201Z,20.98
2018-07-24T03:02:58.624Z,20.71
2018-07-24T03:04:13.080Z,20.74
2018-07-24T03:05:27.020Z,20.73
2018-07-24T03:06:41.346Z,20.85
2018-07-24T03:07:56.014Z,20.83
2018-07-24T03:09:10.705Z,20.74
2018-07-24T03:10:25.445Z,20.75
2018-07-24T03:11:39.883Z,20.77
2018-07-24T03:12:54.286Z,20.75
2018-07-24T03:14:08.711Z,20.75
2018-07-24T03:15:22.886Z,20.6
2018-07-24T03:16:37.656Z,20.64
2018-07-24T03:17:52.331Z,20.75
2018-07-24T03:19:07.025Z,20.86
2018-07-24T03:24:48.375Z,21
2018-07-24T03:26:02.712Z,21
2018-07-24T03:27:17.335Z,20.92
2018-07-24T03:28:31.535Z,21.05
2018-07-24T03:29:45.803Z,21.08
2018-07-24T03:31:00.563Z,21.07
2018-07-24T03:32:15.285Z,21.04
2018-07-24T03:33:29.493Z,21.05
2018-07-24T03:34:45.130Z,21.1
2018-07-24T03:35:59.810Z,21.08
2018-07-24T03:37:14.288Z,21.1
2018-07-24T03:38:28.230Z,21.04
2018-07-24T03:39:42.564Z,21.13
2018-07-24T03:40:56.640Z,21.1
2018-07-24T03:42:11.336Z,21.15
2018-07-24T03:43:25.709Z,21.17
2018-07-24T03:44:39.869Z,21.1
2018-07-24T03:45:54.545Z,21.13
2018-07-24T03:47:08.932Z,21.13
2018-07-24T03:48:23.337Z,21.04
2018-07-24T03:49:38.006Z,21.13
2018-07-24T03:50:52.692Z,21.14
2018-07-24T03:52:07.334Z,21.14
2018-07-24T03:53:21.681Z,21.17
2018-07-24T03:54:36.117Z,21.2
2018-07-24T03:55:50.830Z,21.29
2018-07-24T03:57:05.512Z,21.33
2018-07-24T03:58:20.181Z,21.29
2018-07-24T03:59:34.100Z,21.29
2018-07-24T04:00:48.764Z,21.3
2018-07-24T04:02:03.723Z,21.4
2018-07-24T04:03:17.469Z,21.44
2018-07-24T04:04:32.319Z,21.44
2018-07-24T04:05:46.898Z,21.5
2018-07-24T04:07:01.095Z,21.85
2018-07-24T04:08:15.268Z,22.28
2018-07-24T04:09:29.714Z,22.46
2018-07-24T04:10:43.374Z,22.84
2018-07-24T04:11:57.793Z,23.02
2018-07-24T04:13:12.221Z,23.45
2018-07-24T04:14:26.830Z,23.59
2018-07-24T04:15:41.525Z,23.89
2018-07-24T04:16:56.208Z,24.03
2018-07-24T04:18:10.920Z,24.28
2018-07-24T04:19:25.270Z,24.51
2018-07-24T04:20:39.788Z,24.93
2018-07-24T04:21:54.458Z,25.12
2018-07-24T04:23:09.379Z,25.34
2018-07-24T04:24:23.923Z,25.61
2018-07-24T04:25:37.873Z,25.88
2018-07-24T04:26:52.047Z,26.1
2018-07-24T04:28:05.978Z,26.33
2018-07-24T04:29:21.116Z,26.55
2018-07-24T04:30:35.371Z,26.82
2018-07-24T04:31:50.139Z,26.97
2018-07-24T04:33:04.813Z,27.18
2018-07-24T04:34:19.545Z,27.19
2018-07-24T04:35:34.200Z,27.55
2018-07-24T04:36:48.600Z,27.68
2018-07-24T04:38:03.286Z,28.03
2018-07-24T04:39:18.243Z,28.31
2018-07-24T04:40:33.359Z,28.25
2018-07-24T04:41:48.313Z,28.22
2018-07-24T04:43:02.263Z,28.25
2018-07-24T04:44:16.203Z,28.96
2018-07-24T04:45:30.241Z,29.2
2018-07-24T04:46:44.148Z,29.53
2018-07-24T04:47:58.819Z,29.57
2018-07-24T04:49:12.754Z,29.62
2018-07-24T04:50:27.385Z,29.65
2018-07-24T04:51:42.081Z,29.77
2018-07-24T04:52:56.552Z,29.87
2018-07-24T04:54:10.983Z,30.23
2018-07-24T04:55:25.772Z,30.35
2018-07-24T04:56:40.205Z,30.52
2018-07-24T04:57:54.905Z,30.67
2018-07-24T04:59:09.388Z,30.89
2018-07-24T05:00:23.695Z,30.91
2018-07-24T05:01:38.195Z,30.92
2018-07-24T05:02:52.883Z,30.7
2018-07-24T05:04:07.624Z,31
2018-07-24T05:05:22.127Z,31.14
2018-07-24T05:06:36.619Z,31.51
2018-07-24T05:07:51.389Z,31.67
2018-07-24T05:09:06.371Z,31.72
2018-07-24T05:10:21.130Z,31.95
2018-07-24T05:11:35.533Z,32.24
2018-07-24T05:12:50.004Z,32.48
2018-07-24T05:14:04.759Z,32.59
2018-07-24T05:15:18.724Z,32.45
2018-07-24T05:16:32.668Z,32.83
2018-07-24T05:17:47.224Z,33.01
2018-07-24T05:19:01.385Z,33.08
2018-07-24T05:20:15.565Z,32.97
2018-07-24T05:21:30.410Z,32.78
2018-07-24T05:22:44.848Z,32.88
2018-07-24T05:23:59.033Z,32.81
2018-07-24T05:25:13.975Z,32.53
2018-07-24T05:26:29.141Z,32.78
2018-07-24T05:27:43.890Z,32.49
2018-07-24T05:28:58.360Z,32.67
2018-07-24T05:30:12.844Z,32.54
2018-07-24T05:31:27.363Z,32.73
2018-07-24T05:32:42.054Z,32.86
2018-07-24T05:33:56.770Z,32.48
2018-07-24T05:35:10.490Z,32.23
2018-07-24T05:36:25.004Z,31.37
2018-07-24T05:37:39.522Z,30.81
2018-07-24T05:38:54.571Z,30.17
2018-07-24T05:40:08.771Z,29.5
2018-07-24T05:41:23.932Z,29.09
2018-07-24T05:42:38.786Z,28.8
2018-07-24T05:43:53.483Z,28.74
2018-07-24T05:45:07.918Z,28.62
2018-07-24T05:46:22.587Z,28.52
2018-07-24T05:47:37.351Z,28.16
2018-07-24T05:48:51.928Z,27.97
2018-07-24T05:50:07.073Z,28
2018-07-24T05:51:21.772Z,28.06
2018-07-24T05:52:36.826Z,27.97
2018-07-24T05:53:51.258Z,27.66
2018-07-24T05:55:05.621Z,27.63
2018-07-24T05:56:20.722Z,27.53
2018-07-24T05:57:35.825Z,27.34
2018-07-24T05:58:50.223Z,27.29
2018-07-24T06:00:05.173Z,27.26
2018-07-24T06:01:19.587Z,27.13
2018-07-24T06:02:34.185Z,26.97
2018-07-24T06:03:48.624Z,27.03
2018-07-24T06:05:03.348Z,26.79
2018-07-24T06:06:17.834Z,26.7
2018-07-24T06:07:32.261Z,26.86
2018-07-24T06:08:46.535Z,26.97
2018-07-24T06:10:01.451Z,26.98
2018-07-24T06:11:16.142Z,26.96
2018-07-24T06:12:30.569Z,27.04
2018-07-24T06:13:44.581Z,26.97
2018-07-24T06:14:59.012Z,26.85
2018-07-24T06:16:12.948Z,26.86
2018-07-24T06:17:27.920Z,26.98
2018-07-24T06:18:42.500Z,26.92
2018-07-24T06:19:56.954Z,26.97
2018-07-24T06:21:11.659Z,26.86
2018-07-24T06:22:26.344Z,26.68
2018-07-24T06:23:41.699Z,26.67
2018-07-24T06:24:56.565Z,26.76
2018-07-24T06:26:11.026Z,26.79
2018-07-24T06:27:25.709Z,26.71
2018-07-24T06:28:40.593Z,26.71
2018-07-24T06:29:55.279Z,26.63
2018-07-24T06:31:10.427Z,26.74
2018-07-24T06:32:25.123Z,26.71
2018-07-24T06:33:40.195Z,26.76
2018-07-24T06:34:54.495Z,26.49
2018-07-24T06:36:09.370Z,26.55
2018-07-24T06:37:24.078Z,26.48
2018-07-24T06:38:38.974Z,26.53
2018-07-24T06:39:53.182Z,26.55
2018-07-24T06:41:06.884Z,26.52
2018-07-24T06:42:20.841Z,26.55
2018-07-24T06:43:35.536Z,26.48
2018-07-24T06:44:50.408Z,26.36
2018-07-24T06:46:05.104Z,26.42
2018-07-24T06:47:20.035Z,26.59
2018-07-24T06:48:34.977Z,26.63
2018-07-24T06:49:49.804Z,26.67
2018-07-24T06:51:04.225Z,26.64
2018-07-24T06:52:18.252Z,26.67
2018-07-24T06:53:32.466Z,26.81
2018-07-24T06:54:47.175Z,26.71
2018-07-24T06:56:01.369Z,26.82
2018-07-24T06:57:15.824Z,26.68
2018-07-24T06:58:30.847Z,26.7
2018-07-24T06:59:45.580Z,26.73
2018-07-24T07:01:00.038Z,26.79
2018-07-24T07:02:15.346Z,26.76
2018-07-24T07:03:29.822Z,26.68
2018-07-24T07:04:44.330Z,26.82
2018-07-24T07:05:59.359Z,26.79
2018-07-24T07:07:13.813Z,26.82
2018-07-24T07:08:28.252Z,26.82
2018-07-24T07:09:43.067Z,26.91
2018-07-24T07:10:58.034Z,26.83
2018-07-24T07:12:12.204Z,26.78
2018-07-24T07:13:27.171Z,26.81
2018-07-24T07:14:41.942Z,26.79
2018-07-24T07:15:56.649Z,26.82
2018-07-24T07:17:11.366Z,26.82
2018-07-24T07:18:26.099Z,26.96
2018-07-24T07:19:39.874Z,26.92
2018-07-24T07:20:54.402Z,27.01
2018-07-24T07:22:08.804Z,26.97
2018-07-24T07:23:22.983Z,27
2018-07-24T07:24:37.739Z,27.03
2018-07-24T07:25:52.358Z,27.11
2018-07-24T07:27:07.240Z,27.03
2018-07-24T07:28:21.455Z,26.93
2018-07-24T07:29:35.900Z,27.03
2018-07-24T07:30:50.361Z,27.04
2018-07-24T07:32:04.340Z,27.11
2018-07-24T07:33:18.977Z,27.1
2018-07-24T07:34:33.707Z,27.08
2018-07-24T07:35:48.499Z,27.05
2018-07-24T07:37:02.943Z,27.08
2018-07-24T07:38:16.906Z,27.07
2018-07-24T07:39:31.606Z,27.15
2018-07-24T07:40:46.573Z,27.26
2018-07-24T07:42:01.649Z,27.33
2018-07-24T07:43:16.753Z,27.43
2018-07-24T07:44:31.021Z,27.38
2018-07-24T07:45:45.566Z,27.43
2018-07-24T07:47:00.043Z,27.45
2018-07-24T07:48:14.351Z,27.47
2018-07-24T07:49:28.810Z,27.41
2018-07-24T07:52:12.856Z,27.58
2018-07-24T07:53:27.454Z,27.6
2018-07-24T07:54:41.674Z,27.72
2018-07-24T07:55:56.433Z,27.67
2018-07-24T07:57:10.933Z,27.63
2018-07-24T07:58:25.624Z,27.63
2018-07-24T07:59:40.127Z,27.55
2018-07-24T08:00:54.139Z,27.72
2018-07-24T08:02:09.071Z,27.82
2018-07-24T08:03:24.011Z,27.61
2018-07-24T08:04:38.261Z,27.64
2018-07-24T08:05:52.875Z,27.67
2018-07-24T08:07:07.042Z,27.71
2018-07-24T08:08:21.289Z,27.81
2018-07-24T08:09:36.007Z,27.79
2018-07-24T08:10:50.629Z,27.75
2018-07-24T08:12:04.831Z,27.82
2018-07-24T08:13:19.058Z,27.93
2018-07-24T08:14:33.284Z,27.85
2018-07-24T08:15:47.455Z,28.01
2018-07-24T08:17:02.037Z,27.9
2018-07-24T08:18:16.781Z,28
2018-07-24T08:19:31.473Z,27.9
2018-07-24T08:20:46.107Z,27.97
2018-07-24T08:22:01.239Z,28.01
2018-07-24T08:23:15.505Z,28.03
2018-07-24T08:24:30.206Z,28.03
2018-07-24T08:25:44.415Z,28.1
2018-07-24T08:26:58.525Z,28.09
2018-07-24T08:28:13.081Z,28.16
2018-07-24T08:29:27.890Z,28.16
2018-07-24T08:30:42.806Z,28.13
2018-07-24T08:31:57.641Z,28.23
2018-07-24T08:33:12.365Z,28.22
2018-07-24T08:34:27.318Z,28.22
2018-07-24T08:35:41.789Z,28.18
2018-07-24T08:36:56.494Z,28.16
2018-07-24T08:38:10.964Z,28.18
2018-07-24T08:39:25.714Z,28.3
2018-07-24T08:40:40.166Z,28.28
2018-07-24T08:41:54.631Z,28.38
2018-07-24T08:43:08.845Z,28.38
2018-07-24T08:44:23.557Z,28.4
2018-07-24T08:45:38.079Z,28.41
2018-07-24T08:46:52.252Z,28.49
2018-07-24T08:48:06.961Z,28.5
2018-07-24T08:49:21.066Z,28.53
2018-07-24T08:50:35.277Z,28.6
2018-07-24T08:51:49.762Z,28.64
2018-07-24T08:53:05.679Z,28.68
2018-07-24T08:54:20.452Z,28.62
2018-07-24T08:55:36.694Z,28.83
2018-07-24T08:56:51.712Z,28.77
2018-07-24T08:58:06.254Z,28.84
2018-07-24T08:59:21.213Z,28.83
2018-07-24T09:00:36.380Z,28.75
2018-07-24T09:01:50.833Z,28.75
2018-07-24T09:03:05.626Z,28.89
2018-07-24T09:04:20.722Z,28.87
2018-07-24T09:05:35.477Z,28.96
2018-07-24T09:06:49.674Z,29.06
2018-07-24T09:08:04.921Z,29.09
2018-07-24T09:09:19.396Z,29.05
2018-07-24T09:10:33.623Z,29.03
2018-07-24T09:11:48.353Z,29.06
2018-07-24T09:13:03.565Z,29.21
2018-07-24T09:14:18.083Z,29.2
2018-07-24T09:15:32.121Z,29.37
2018-07-24T09:16:46.798Z,29.35
2018-07-24T09:18:01.298Z,29.39
2018-07-24T09:19:16.038Z,29.5
2018-07-24T09:20:30.485Z,29.47
2018-07-24T09:21:45.208Z,29.57
2018-07-24T09:22:59.656Z,29.62
2018-07-24T09:24:14.115Z,29.62
2018-07-24T09:25:28.848Z,29.57
2018-07-24T09:26:43.058Z,29.64
2018-07-24T09:27:57.268Z,29.68
2018-07-24T09:29:11.728Z,29.62
2018-07-24T09:30:25.899Z,29.68
2018-07-24T09:31:40.448Z,29.77
2018-07-24T09:32:54.639Z,29.77
2018-07-24T09:34:09.669Z,29.83
2018-07-24T09:35:24.397Z,29.87
2018-07-24T09:36:38.638Z,29.83
2018-07-24T09:37:53.352Z,29.9
2018-07-24T09:39:08.139Z,29.95
2018-07-24T09:40:22.939Z,29.96
2018-07-24T09:41:37.247Z,30.01
2018-07-24T09:42:51.726Z,29.99
2018-07-24T09:44:06.241Z,30.08
2018-07-24T09:45:20.477Z,30.1
2018-07-24T09:46:34.508Z,30.1
2018-07-24T09:47:49.203Z,30.16
2018-07-24T09:49:03.293Z,30.18
2018-07-24T09:50:17.756Z,30.35
2018-07-24T09:51:32.529Z,30.39
2018-07-24T09:52:47.462Z,30.35
2018-07-24T09:54:02.260Z,30.32
2018-07-24T09:55:16.702Z,30.29
2018-07-24T09:56:31.667Z,30.31
2018-07-24T09:57:46.561Z,30.35
2018-07-24T09:59:01.581Z,30.33
2018-07-24T10:00:16.405Z,30.39
2018-07-24T10:01:30.888Z,30.51
2018-07-24T10:02:45.608Z,30.61
2018-07-24T10:03:59.845Z,30.76
2018-07-24T10:11:53.349Z,30.52
2018-07-24T10:13:08.514Z,30.46
2018-07-24T10:14:23.061Z,30.54
2018-07-24T10:15:37.850Z,30.59
2018-07-24T10:16:52.765Z,30.46
2018-07-24T10:18:06.799Z,30.55
2018-07-24T10:19:20.777Z,30.55
2018-07-24T10:20:35.280Z,30.55
2018-07-24T10:21:49.356Z,30.61
2018-07-24T10:23:03.556Z,30.59
2018-07-24T10:24:17.624Z,30.59
2018-07-24T10:25:32.761Z,30.77
2018-07-24T10:26:47.499Z,30.73
2018-07-24T10:28:02.026Z,30.71
2018-07-24T10:29:16.513Z,30.61
2018-07-24T10:30:31.477Z,30.62
2018-07-24T10:31:46.572Z,30.65
2018-07-24T10:33:00.832Z,30.81
2018-07-24T10:34:15.278Z,30.81
2018-07-24T10:35:30.292Z,30.83
2018-07-24T10:36:45.536Z,30.78
2018-07-24T10:38:00.182Z,30.91
2018-07-24T10:39:14.658Z,30.92
2018-07-24T10:40:29.632Z,31.05
2018-07-24T10:41:44.386Z,30.89
2018-07-24T10:42:59.207Z,30.99
2018-07-24T10:44:13.873Z,30.96
2018-07-24T10:45:28.390Z,30.98
2018-07-24T10:46:43.016Z,30.92
2018-07-24T10:47:57.385Z,30.95
2018-07-24T10:49:11.783Z,31.1
2018-07-24T10:50:26.139Z,31.1
2018-07-24T10:51:41.076Z,31.13
2018-07-24T10:52:55.854Z,31.18
2018-07-24T10:54:10.352Z,31.13
2018-07-24T10:55:25.123Z,31
2018-07-24T10:56:39.621Z,31
2018-07-24T10:57:54.413Z,30.93
2018-07-24T10:59:09.469Z,30.91
2018-07-24T11:00:24.399Z,30.98
2018-07-24T11:01:39.375Z,30.99
2018-07-24T11:02:53.101Z,31.04
2018-07-24T11:04:08.220Z,30.99
2018-07-24T11:05:23.178Z,31.07
2018-07-24T11:06:38.252Z,31
2018-07-24T11:07:52.397Z,31.07
2018-07-24T11:09:07.275Z,31.08
2018-07-24T11:10:22.233Z,31
2018-07-24T11:11:36.951Z,30.96
2018-07-24T11:12:51.184Z,30.95
2018-07-24T11:14:06.342Z,31.1
2018-07-24T11:15:21.038Z,31
2018-07-24T11:16:35.830Z,31
2018-07-24T11:17:50.855Z,31.08
2018-07-24T11:19:05.463Z,31.02
2018-07-24T11:20:19.722Z,31.05
2018-07-24T11:21:34.719Z,31.11
2018-07-24T11:22:50.679Z,31.11
2018-07-24T11:24:06.967Z,31.11
2018-07-24T11:25:21.655Z,31.17
2018-07-24T11:26:35.880Z,31.22
2018-07-24T11:27:50.344Z,31.17
2018-07-24T11:29:05.820Z,31.14
2018-07-24T11:30:20.982Z,31.17
2018-07-24T11:31:35.915Z,31.17
2018-07-24T11:32:50.430Z,31.17
2018-07-24T11:34:04.975Z,31.13
2018-07-24T11:35:19.446Z,31.29
2018-07-24T11:36:34.365Z,31.35
2018-07-24T11:37:49.076Z,31.54
2018-07-24T11:39:03.659Z,31.55
2018-07-24T11:40:18.095Z,31.59
2018-07-24T11:41:32.836Z,31.55
2018-07-24T11:42:47.325Z,31.47
2018-07-24T11:44:02.625Z,31.48
2018-07-24T11:45:17.662Z,31.3
2018-07-24T11:46:32.426Z,31.35
2018-07-24T11:47:47.636Z,31.33
2018-07-24T11:49:02.112Z,31.32
2018-07-24T11:50:16.422Z,31.33
2018-07-24T11:51:30.481Z,31.32
2018-07-24T11:52:45.313Z,31.3
2018-07-24T11:54:00.287Z,31.3
2018-07-24T11:55:15.369Z,31.32
2018-07-24T11:56:29.876Z,31.33
2018-07-24T11:57:44.723Z,31.48
2018-07-24T11:58:59.334Z,31.54
2018-07-24T12:00:14.350Z,31.57
2018-07-24T12:01:29.088Z,31.7
2018-07-24T12:02:43.539Z,31.79
2018-07-24T12:03:57.969Z,31.73
2018-07-24T12:05:12.718Z,31.74
2018-07-24T12:06:27.403Z,31.78
2018-07-24T12:07:42.133Z,31.82
2018-07-24T12:08:56.491Z,31.9
2018-07-24T12:10:11.180Z,31.73
2018-07-24T12:11:25.993Z,31.59
2018-07-24T12:12:40.561Z,31.54
2018-07-24T12:13:55.249Z,31.62
2018-07-24T12:15:09.855Z,31.69
2018-07-24T12:16:24.496Z,31.72
2018-07-24T12:17:38.934Z,31.66
2018-07-24T12:18:53.395Z,31.72
2018-07-24T12:20:07.942Z,31.7
2018-07-24T12:21:22.665Z,31.93
2018-07-24T12:22:37.409Z,32.07
2018-07-24T12:23:51.900Z,32.24
2018-07-24T12:25:06.643Z,32.26
2018-07-24T12:26:21.482Z,32.16
2018-07-24T12:27:36.229Z,32.07
2018-07-24T12:28:50.460Z,32.09
2018-07-24T12:30:05.159Z,32.07
2018-07-24T12:31:20.315Z,32.15
2018-07-24T12:32:34.832Z,32.23
2018-07-24T12:33:49.599Z,32.24
2018-07-24T12:35:03.886Z,32.19
2018-07-24T12:36:18.994Z,32.24
2018-07-24T12:37:33.824Z,32.17
2018-07-24T12:38:49.055Z,32.35
2018-07-24T12:40:03.580Z,32.37
2018-07-24T12:41:18.194Z,32.22
2018-07-24T12:42:33.025Z,32.38
2018-07-24T12:43:47.905Z,32.24
2018-07-24T12:45:02.944Z,32.41
2018-07-24T12:46:17.279Z,32.41
2018-07-24T12:47:31.776Z,32.39
2018-07-24T12:48:46.594Z,32.37
2018-07-24T12:50:01.375Z,32.46
2018-07-24T12:51:16.324Z,32.56
2018-07-24T12:52:31.647Z,32.66
2018-07-24T12:53:46.637Z,32.57
2018-07-24T12:55:01.139Z,32.57
2018-07-24T12:56:15.722Z,32.63
2018-07-24T12:57:30.465Z,32.63
2018-07-24T12:58:45.204Z,32.56
2018-07-24T12:59:59.721Z,32.45
2018-07-24T13:01:14.341Z,32.38
2018-07-24T13:02:29.632Z,32.39
2018-07-24T13:03:44.172Z,32.38
2018-07-24T13:04:58.429Z,32.39
2018-07-24T13:06:13.134Z,32.39
2018-07-24T13:07:27.802Z,32.39
2018-07-24T13:08:42.544Z,32.42
2018-07-24T13:09:57.805Z,32.48
2018-07-24T13:11:13.043Z,32.56
2018-07-24T13:12:27.436Z,32.6
2018-07-24T13:13:42.187Z,32.66
2018-07-24T13:14:56.933Z,32.67
2018-07-24T13:16:11.893Z,32.76
2018-07-24T13:17:26.197Z,32.81
2018-07-24T13:18:40.730Z,32.76
2018-07-24T13:19:55.473Z,32.75
2018-07-24T13:21:09.670Z,32.9
2018-07-24T13:22:23.367Z,32.85
2018-07-24T13:23:38.094Z,32.85
2018-07-24T13:24:52.045Z,32.76
2018-07-24T13:26:06.989Z,32.56
2018-07-24T13:27:22.195Z,32.46
2018-07-24T13:28:36.439Z,32.49
2018-07-24T13:29:50.935Z,32.41
2018-07-24T13:31:05.378Z,32.37
2018-07-24T13:32:20.246Z,32.37
2018-07-24T13:33:34.707Z,32.29
2018-07-24T13:34:49.395Z,32.35
2018-07-24T13:36:04.138Z,32.37
2018-07-24T13:37:18.691Z,32.22
2018-07-24T13:38:33.501Z,32.39
2018-07-24T13:39:48.191Z,32.37
2018-07-24T13:41:02.705Z,32.39
2018-07-24T13:42:17.506Z,32.6
2018-07-24T13:43:32.276Z,32.66
2018-07-24T13:44:46.995Z,32.75
2018-07-24T13:46:02.209Z,32.83
2018-07-24T13:47:17.342Z,32.75
2018-07-24T13:48:31.828Z,32.67
2018-07-24T13:49:46.552Z,32.49
2018-07-24T13:51:01.529Z,32.51
2018-07-24T13:52:16.109Z,32.45
2018-07-24T13:53:30.703Z,32.41
2018-07-24T13:54:45.395Z,32.42
2018-07-24T13:56:00.139Z,32.51
2018-07-24T13:57:14.580Z,32.48
2018-07-24T13:58:29.450Z,32.6
2018-07-24T13:59:44.147Z,32.6
2018-07-24T14:00:58.921Z,32.54
2018-07-24T14:02:13.372Z,32.49
2018-07-24T14:03:28.129Z,32.57
2018-07-24T14:04:42.850Z,32.53
2018-07-24T14:05:57.095Z,32.61
2018-07-24T14:07:11.314Z,32.81
2018-07-24T14:08:26.330Z,32.94
2018-07-24T14:09:41.192Z,32.88
2018-07-24T14:10:56.144Z,32.83
2018-07-24T14:12:10.857Z,32.88
2018-07-24T14:13:25.443Z,32.88
2018-07-24T14:14:39.648Z,32.85
2018-07-24T14:15:54.133Z,32.93
2018-07-24T14:17:08.838Z,32.97
2018-07-24T14:18:23.363Z,33.08
2018-07-24T14:19:38.089Z,32.97
2018-07-24T14:20:53.032Z,33.03
2018-07-24T14:22:08.074Z,32.95
2018-07-24T14:23:22.900Z,32.9
2018-07-24T14:24:37.864Z,32.82
2018-07-24T14:25:52.568Z,32.76
2018-07-24T14:27:06.517Z,32.67
2018-07-24T14:28:20.485Z,32.68
2018-07-24T14:29:35.194Z,32.86
2018-07-24T14:30:49.678Z,32.9
2018-07-24T14:32:04.119Z,33
2018-07-24T14:33:19.059Z,33
2018-07-24T14:34:33.856Z,32.97
2018-07-24T14:35:47.795Z,32.97
2018-07-24T14:37:02.920Z,32.94
2018-07-24T14:38:17.378Z,33.01
2018-07-24T14:39:32.242Z,32.98
2018-07-24T14:40:45.711Z,33.08
2018-07-24T14:42:00.440Z,33.01
2018-07-24T14:43:14.444Z,33.13
2018-07-24T14:44:28.830Z,33.05
2018-07-24T14:45:43.820Z,33.09
2018-07-24T14:46:58.025Z,33.1
2018-07-24T14:48:12.520Z,33.05
2018-07-24T14:49:27.766Z,33.05
2018-07-24T14:50:41.977Z,33
2018-07-24T14:51:56.988Z,33.01
2018-07-24T14:53:11.438Z,32.86
2018-07-24T14:54:26.320Z,32.85
2018-07-24T14:55:41.059Z,32.81
2018-07-24T14:56:55.787Z,32.9
2018-07-24T14:58:10.007Z,32.95
2018-07-24T14:59:25.080Z,32.91
2018-07-24T15:00:39.564Z,33.15
2018-07-24T15:01:54.028Z,33.28
2018-07-24T15:03:08.033Z,33.36
2018-07-24T15:04:22.729Z,33.31
2018-07-24T15:05:36.893Z,33.33
2018-07-24T15:06:51.588Z,33.29
2018-07-24T15:08:06.031Z,33.23
2018-07-24T15:09:20.466Z,33.31
2018-07-24T15:10:35.217Z,33.42
2018-07-24T15:11:49.684Z,33.44
2018-07-24T15:13:04.189Z,33.31
2018-07-24T15:14:18.531Z,33.38
2018-07-24T15:15:33.392Z,33.4
2018-07-24T15:16:47.871Z,33.36
2018-07-24T15:18:02.107Z,33.39
2018-07-24T15:19:16.589Z,33.38
2018-07-24T15:20:31.414Z,33.36
2018-07-24T15:21:46.070Z,33.42
2018-07-24T15:23:00.802Z,33.35
2018-07-24T15:24:15.566Z,33.31
2018-07-24T15:25:30.139Z,33.38
2018-07-24T15:26:45.117Z,33.44
2018-07-24T15:27:59.590Z,33.29
2018-07-24T15:29:14.302Z,33.28
2018-07-24T15:30:28.955Z,33.36
2018-07-24T15:31:43.785Z,33.35
2018-07-24T15:32:57.968Z,33.33
2018-07-24T15:34:12.830Z,33.32
2018-07-24T15:35:27.359Z,33.31
2018-07-24T15:36:41.526Z,33.33
2018-07-24T15:37:55.721Z,33.44
2018-07-24T15:39:09.962Z,33.44
2018-07-24T15:40:24.730Z,33.53
2018-07-24T15:41:38.698Z,33.5
2018-07-24T15:42:53.157Z,33.47
2018-07-24T15:44:07.625Z,33.44
2018-07-24T15:45:22.632Z,33.44
2018-07-24T15:46:37.197Z,33.38
2018-07-24T15:47:52.078Z,33.32
2018-07-24T15:49:06.536Z,33.4
2018-07-24T15:50:20.994Z,33.29
2018-07-24T15:51:36.086Z,33.32
2018-07-24T15:52:50.074Z,33.32
2018-07-24T15:54:04.269Z,33.35
2018-07-24T15:55:18.999Z,33.5
2018-07-24T15:56:33.840Z,33.51
2018-07-24T15:57:48.217Z,33.45
2018-07-24T15:59:03.557Z,33.55
2018-07-24T16:00:18.242Z,33.53
2018-07-24T16:01:32.837Z,33.5
2018-07-24T16:02:47.580Z,33.44
2018-07-24T16:04:02.117Z,33.39
2018-07-24T16:05:16.660Z,33.38
2018-07-24T16:06:31.400Z,33.35
2018-07-24T16:07:45.709Z,33.55
2018-07-24T16:09:00.184Z,33.55
2018-07-24T16:10:14.853Z,33.55
2018-07-24T16:11:28.814Z,33.53
2018-07-24T16:12:43.319Z,33.55
2018-07-24T16:13:57.760Z,33.75
2018-07-24T16:15:12.545Z,33.75
2018-07-24T16:16:26.827Z,33.72
2018-07-24T16:17:41.564Z,33.7